Terminal Aerodrome Forecast
Issued by NWS

Home | Current Version | Previous Version | Text Only | Print | Product List | Glossary On
Versions: 1 2 3 4 5 6 7 8 9 10 11 12
498
FTUS43 KDTX 170522
TAFDET
TAF
KDET 170522Z 1706/1806 12005KT P6SM FEW100 BKN250
     FM170900 12007KT 5SM BR SCT028 OVC060
     FM171200 14009KT P6SM BKN030
      TEMPO 1712/1716 2SM +TSRA BKN014 OVC022CB
     FM171900 20013G20KT P6SM BKN030 PROB30 1721/1724 2SM +TSRA
      BKN020 OVC030CB
     FM180100 21012KT P6SM SCT030 BKN050=

USA.gov is the U.S. government's official web portal to all federal, state and local government web resources and services.